Terminal Aerodrome Forecast
Issued by NWS

Home | Current Version | Previous Version | Graphics & Text | Print | Product List | Glossary On
Versions: 1 2 3 4 5 6 7 8 9 10 11 12 13
500
FTUS41 KCLE 191726
TAFFDY
TAF
KFDY 191726Z 1918/2018 26012KT P6SM FEW250
     FM192300 26006KT P6SM SKC
     FM201400 19004KT P6SM SKC=

USA.gov is the U.S. government's official web portal to all federal, state and local government web resources and services.